sensor_id;sensor_type;location;lat;lon;timestamp;P1;durP1;ratioP1;P2;durP2;ratioP2
10529;SDS011;5313;48.834;9.228;2022-07-03T00:01:43;2.57;;;2.20;;
10529;SDS011;5313;48.834;9.228;2022-07-03T00:04:09;3.20;;;2.30;;
10529;SDS011;5313;48.834;9.228;2022-07-03T00:06:34;5.10;;;2.40;;
10529;SDS011;5313;48.834;9.228;2022-07-03T00:09:00;3.30;;;2.43;;
10529;SDS011;5313;48.834;9.228;2022-07-03T00:11:28;4.30;;;2.40;;
10529;SDS011;5313;48.834;9.228;2022-07-03T00:13:54;4.67;;;2.50;;
10529;SDS011;5313;48.834;9.228;2022-07-03T00:16:20;5.67;;;2.93;;
10529;SDS011;5313;48.834;9.228;2022-07-03T00:18:45;4.70;;;2.73;;
10529;SDS011;5313;48.834;9.228;2022-07-03T00:21:11;5.03;;;3.00;;
10529;SDS011;5313;48.834;9.228;2022-07-03T00:24:02;4.00;;;3.27;;
10529;SDS011;5313;48.834;9.228;2022-07-03T00:26:32;3.87;;;2.60;;
10529;SDS011;5313;48.834;9.228;2022-07-03T00:29:00;4.40;;;3.07;;
10529;SDS011;5313;48.834;9.228;2022-07-03T00:31:29;3.53;;;2.90;;
10529;SDS011;5313;48.834;9.228;2022-07-03T00:33:57;4.07;;;3.07;;
10529;SDS011;5313;48.834;9.228;2022-07-03T00:36:34;4.87;;;3.40;;
10529;SDS011;5313;48.834;9.228;2022-07-03T00:39:00;4.73;;;3.00;;
10529;SDS011;5313;48.834;9.228;2022-07-03T00:41:27;4.67;;;3.03;;
10529;SDS011;5313;48.834;9.228;2022-07-03T00:43:53;4.80;;;3.33;;
10529;SDS011;5313;48.834;9.228;2022-07-03T00:46:20;3.87;;;3.40;;
10529;SDS011;5313;48.834;9.228;2022-07-03T00:48:49;6.73;;;3.37;;
10529;SDS011;5313;48.834;9.228;2022-07-03T00:51:16;4.50;;;2.97;;
10529;SDS011;5313;48.834;9.228;2022-07-03T00:53:46;4.60;;;3.03;;
10529;SDS011;5313;48.834;9.228;2022-07-03T00:56:13;3.70;;;2.87;;
10529;SDS011;5313;48.834;9.228;2022-07-03T00:58:41;3.67;;;2.97;;
10529;SDS011;5313;48.834;9.228;2022-07-03T01:01:07;5.43;;;2.90;;
10529;SDS011;5313;48.834;9.228;2022-07-03T01:03:35;2.67;;;2.30;;
10529;SDS011;5313;48.834;9.228;2022-07-03T01:06:10;4.30;;;3.07;;
10529;SDS011;5313;48.834;9.228;2022-07-03T01:08:48;3.93;;;2.70;;
10529;SDS011;5313;48.834;9.228;2022-07-03T01:17:06;4.27;;;2.77;;
10529;SDS011;5313;48.834;9.228;2022-07-03T01:19:49;3.17;;;2.80;;
10529;SDS011;5313;48.834;9.228;2022-07-03T01:22:36;4.77;;;3.07;;
10529;SDS011;5313;48.834;9.228;2022-07-03T01:25:13;3.50;;;2.70;;
10529;SDS011;5313;48.834;9.228;2022-07-03T01:30:33;4.97;;;2.67;;
10529;SDS011;5313;48.834;9.228;2022-07-03T01:38:04;4.03;;;2.90;;
10529;SDS011;5313;48.834;9.228;2022-07-03T01:40:36;3.80;;;2.80;;
10529;SDS011;5313;48.834;9.228;2022-07-03T01:43:10;2.93;;;2.43;;
10529;SDS011;5313;48.834;9.228;2022-07-03T01:45:46;3.37;;;2.50;;
10529;SDS011;5313;48.834;9.228;2022-07-03T01:48:14;4.10;;;2.63;;
10529;SDS011;5313;48.834;9.228;2022-07-03T01:50:41;10.10;;;2.60;;
10529;SDS011;5313;48.834;9.228;2022-07-03T01:53:08;4.80;;;2.20;;
10529;SDS011;5313;48.834;9.228;2022-07-03T01:55:37;2.70;;;2.50;;
10529;SDS011;5313;48.834;9.228;2022-07-03T01:58:05;3.83;;;2.60;;
10529;SDS011;5313;48.834;9.228;2022-07-03T02:00:31;4.23;;;;;
10529;SDS011;5313;48.834;9.228;2022-07-03T02:03:05;3.47;;;2.57;;
10529;SDS011;5313;48.834;9.228;2022-07-03T02:11:21;5.10;;;2.90;;
10529;SDS011;5313;48.834;9.228;2022-07-03T02:16:23;5.43;;;2.50;;
10529;SDS011;5313;48.834;9.228;2022-07-03T02:18:58;3.57;;;2.50;;
10529;SDS011;5313;48.834;9.228;2022-07-03T02:21:28;4.23;;;2.77;;
10529;SDS011;5313;48.834;9.228;2022-07-03T02:24:03;5.67;;;2.50;;
10529;SDS011;5313;48.834;9.228;2022-07-03T02:26:42;5.00;;;2.50;;
10529;SDS011;5313;48.834;9.228;2022-07-03T02:29:17;3.13;;;2.43;;
10529;SDS011;5313;48.834;9.228;2022-07-03T02:31:45;4.93;;;2.63;;
10529;SDS011;5313;48.834;9.228;2022-07-03T02:34:15;3.10;;;2.70;;
10529;SDS011;5313;48.834;9.228;2022-07-03T02:36:46;2.70;;;2.40;;
10529;SDS011;5313;48.834;9.228;2022-07-03T02:39:18;4.03;;;2.93;;
10529;SDS011;5313;48.834;9.228;2022-07-03T02:41:52;3.97;;;2.70;;
10529;SDS011;5313;48.834;9.228;2022-07-03T02:44:31;4.50;;;3.00;;
10529;SDS011;5313;48.834;9.228;2022-07-03T03:00:27;3.60;;;2.90;;
10529;SDS011;5313;48.834;9.228;2022-07-03T03:02:58;3.03;;;2.73;;
10529;SDS011;5313;48.834;9.228;2022-07-03T03:05:32;5.03;;;3.00;;
10529;SDS011;5313;48.834;9.228;2022-07-03T03:10:40;5.53;;;2.90;;
10529;SDS011;5313;48.834;9.228;2022-07-03T03:13:12;4.10;;;2.67;;
10529;SDS011;5313;48.834;9.228;2022-07-03T03:15:39;3.97;;;2.70;;
10529;SDS011;5313;48.834;9.228;2022-07-03T03:18:26;5.27;;;2.83;;
10529;SDS011;5313;48.834;9.228;2022-07-03T03:20:53;3.47;;;2.67;;
10529;SDS011;5313;48.834;9.228;2022-07-03T03:23:35;4.93;;;2.70;;
10529;SDS011;5313;48.834;9.228;2022-07-03T03:26:13;4.03;;;3.10;;
10529;SDS011;5313;48.834;9.228;2022-07-03T03:28:42;3.20;;;2.90;;
10529;SDS011;5313;48.834;9.228;2022-07-03T03:31:08;4.30;;;3.00;;
10529;SDS011;5313;48.834;9.228;2022-07-03T03:33:42;4.57;;;2.80;;
10529;SDS011;5313;48.834;9.228;2022-07-03T03:36:09;4.30;;;2.83;;
10529;SDS011;5313;48.834;9.228;2022-07-03T03:38:38;5.13;;;2.73;;
10529;SDS011;5313;48.834;9.228;2022-07-03T03:41:05;5.37;;;2.30;;
10529;SDS011;5313;48.834;9.228;2022-07-03T03:43:32;3.17;;;2.53;;
10529;SDS011;5313;48.834;9.228;2022-07-03T03:45:58;2.30;;;2.10;;
10529;SDS011;5313;48.834;9.228;2022-07-03T03:48:27;2.23;;;1.97;;
10529;SDS011;5313;48.834;9.228;2022-07-03T03:50:55;6.77;;;2.70;;
10529;SDS011;5313;48.834;9.228;2022-07-03T03:53:21;2.53;;;2.20;;
10529;SDS011;5313;48.834;9.228;2022-07-03T03:56:01;3.03;;;2.07;;
10529;SDS011;5313;48.834;9.228;2022-07-03T03:58:33;4.17;;;2.23;;
10529;SDS011;5313;48.834;9.228;2022-07-03T04:01:02;3.00;;;2.13;;
10529;SDS011;5313;48.834;9.228;2022-07-03T04:03:29;2.90;;;2.23;;
10529;SDS011;5313;48.834;9.228;2022-07-03T04:05:55;5.83;;;2.27;;
10529;SDS011;5313;48.834;9.228;2022-07-03T04:08:21;2.70;;;2.20;;
10529;SDS011;5313;48.834;9.228;2022-07-03T04:10:48;4.17;;;2.50;;
10529;SDS011;5313;48.834;9.228;2022-07-03T04:13:14;3.33;;;2.60;;
10529;SDS011;5313;48.834;9.228;2022-07-03T04:15:41;2.77;;;2.10;;
10529;SDS011;5313;48.834;9.228;2022-07-03T04:18:07;2.37;;;2.17;;
10529;SDS011;5313;48.834;9.228;2022-07-03T04:20:33;3.37;;;2.37;;
10529;SDS011;5313;48.834;9.228;2022-07-03T04:22:59;4.53;;;2.53;;
10529;SDS011;5313;48.834;9.228;2022-07-03T04:25:25;5.20;;;2.30;;
10529;SDS011;5313;48.834;9.228;2022-07-03T04:27:51;2.53;;;1.97;;
10529;SDS011;5313;48.834;9.228;2022-07-03T04:30:17;2.50;;;2.30;;
10529;SDS011;5313;48.834;9.228;2022-07-03T04:32:42;3.07;;;2.40;;
10529;SDS011;5313;48.834;9.228;2022-07-03T04:35:09;3.27;;;2.20;;
10529;SDS011;5313;48.834;9.228;2022-07-03T04:37:34;2.77;;;2.33;;
10529;SDS011;5313;48.834;9.228;2022-07-03T04:40:00;5.23;;;2.30;;
10529;SDS011;5313;48.834;9.228;2022-07-03T04:42:26;3.23;;;2.30;;
10529;SDS011;5313;48.834;9.228;2022-07-03T04:44:51;3.50;;;2.33;;
10529;SDS011;5313;48.834;9.228;2022-07-03T04:47:17;2.47;;;2.10;;
10529;SDS011;5313;48.834;9.228;2022-07-03T04:49:43;2.47;;;2.10;;
10529;SDS011;5313;48.834;9.228;2022-07-03T04:52:09;3.33;;;2.40;;
10529;SDS011;5313;48.834;9.228;2022-07-03T04:54:35;2.00;;;1.80;;
10529;SDS011;5313;48.834;9.228;2022-07-03T04:57:01;2.60;;;2.40;;
10529;SDS011;5313;48.834;9.228;2022-07-03T04:59:27;2.40;;;2.20;;
10529;SDS011;5313;48.834;9.228;2022-07-03T05:01:52;4.40;;;2.30;;
10529;SDS011;5313;48.834;9.228;2022-07-03T05:04:18;2.90;;;1.77;;
10529;SDS011;5313;48.834;9.228;2022-07-03T05:06:44;2.80;;;2.17;;
10529;SDS011;5313;48.834;9.228;2022-07-03T05:09:09;4.13;;;2.10;;
10529;SDS011;5313;48.834;9.228;2022-07-03T05:11:35;3.57;;;2.23;;
10529;SDS011;5313;48.834;9.228;2022-07-03T05:14:01;2.30;;;2.07;;
10529;SDS011;5313;48.834;9.228;2022-07-03T05:16:30;2.60;;;2.17;;
10529;SDS011;5313;48.834;9.228;2022-07-03T05:18:56;4.43;;;2.40;;
10529;SDS011;5313;48.834;9.228;2022-07-03T05:21:21;2.40;;;2.13;;
10529;SDS011;5313;48.834;9.228;2022-07-03T05:23:47;3.87;;;1.93;;
10529;SDS011;5313;48.834;9.228;2022-07-03T05:26:12;4.03;;;2.23;;
10529;SDS011;5313;48.834;9.228;2022-07-03T05:28:38;2.77;;;2.10;;
10529;SDS011;5313;48.834;9.228;2022-07-03T05:31:04;4.67;;;2.70;;
10529;SDS011;5313;48.834;9.228;2022-07-03T05:33:30;2.27;;;2.07;;
10529;SDS011;5313;48.834;9.228;2022-07-03T05:35:56;4.63;;;2.00;;
10529;SDS011;5313;48.834;9.228;2022-07-03T05:38:22;4.77;;;1.90;;
10529;SDS011;5313;48.834;9.228;2022-07-03T05:41:06;3.10;;;1.93;;
10529;SDS011;5313;48.834;9.228;2022-07-03T05:43:32;3.23;;;1.80;;
10529;SDS011;5313;48.834;9.228;2022-07-03T05:45:57;3.00;;;2.10;;
10529;SDS011;5313;48.834;9.228;2022-07-03T05:48:23;2.33;;;2.00;;
10529;SDS011;5313;48.834;9.228;2022-07-03T05:50:49;2.90;;;1.73;;
10529;SDS011;5313;48.834;9.228;2022-07-03T05:53:14;3.00;;;1.90;;
10529;SDS011;5313;48.834;9.228;2022-07-03T05:55:40;2.40;;;2.10;;
10529;SDS011;5313;48.834;9.228;2022-07-03T05:58:05;2.63;;;1.73;;
10529;SDS011;5313;48.834;9.228;2022-07-03T06:00:31;1.87;;;1.60;;
10529;SDS011;5313;48.834;9.228;2022-07-03T06:02:56;2.43;;;1.70;;
10529;SDS011;5313;48.834;9.228;2022-07-03T06:05:22;2.20;;;1.80;;
10529;SDS011;5313;48.834;9.228;2022-07-03T06:07:47;2.20;;;2.00;;
10529;SDS011;5313;48.834;9.228;2022-07-03T06:10:14;2.63;;;1.80;;
10529;SDS011;5313;48.834;9.228;2022-07-03T06:12:40;2.33;;;2.00;;
10529;SDS011;5313;48.834;9.228;2022-07-03T06:15:06;3.33;;;1.80;;
10529;SDS011;5313;48.834;9.228;2022-07-03T06:17:34;1.80;;;1.70;;
10529;SDS011;5313;48.834;9.228;2022-07-03T06:20:01;2.77;;;1.87;;
10529;SDS011;5313;48.834;9.228;2022-07-03T06:22:30;1.83;;;1.67;;
10529;SDS011;5313;48.834;9.228;2022-07-03T06:24:55;1.70;;;1.50;;
10529;SDS011;5313;48.834;9.228;2022-07-03T06:27:21;1.80;;;1.67;;
10529;SDS011;5313;48.834;9.228;2022-07-03T06:29:47;2.17;;;1.80;;
10529;SDS011;5313;48.834;9.228;2022-07-03T06:32:14;2.50;;;1.53;;
10529;SDS011;5313;48.834;9.228;2022-07-03T06:34:40;1.93;;;1.70;;
10529;SDS011;5313;48.834;9.228;2022-07-03T06:37:07;1.97;;;1.67;;
10529;SDS011;5313;48.834;9.228;2022-07-03T06:39:33;2.00;;;1.77;;
10529;SDS011;5313;48.834;9.228;2022-07-03T06:41:59;5.10;;;1.70;;
10529;SDS011;5313;48.834;9.228;2022-07-03T06:44:25;3.07;;;1.63;;
10529;SDS011;5313;48.834;9.228;2022-07-03T06:46:50;2.47;;;1.60;;
10529;SDS011;5313;48.834;9.228;2022-07-03T06:49:16;1.50;;;1.40;;
10529;SDS011;5313;48.834;9.228;2022-07-03T06:51:41;2.43;;;1.50;;
10529;SDS011;5313;48.834;9.228;2022-07-03T06:54:07;4.83;;;1.70;;
10529;SDS011;5313;48.834;9.228;2022-07-03T06:56:32;5.30;;;1.90;;
10529;SDS011;5313;48.834;9.228;2022-07-03T06:58:59;3.47;;;1.70;;
10529;SDS011;5313;48.834;9.228;2022-07-03T07:01:24;2.97;;;2.10;;
10529;SDS011;5313;48.834;9.228;2022-07-03T07:03:50;4.00;;;1.90;;
10529;SDS011;5313;48.834;9.228;2022-07-03T07:06:15;1.97;;;1.77;;
10529;SDS011;5313;48.834;9.228;2022-07-03T07:08:41;2.60;;;1.97;;
10529;SDS011;5313;48.834;9.228;2022-07-03T07:11:06;2.97;;;1.50;;
10529;SDS011;5313;48.834;9.228;2022-07-03T07:13:32;3.63;;;1.57;;
10529;SDS011;5313;48.834;9.228;2022-07-03T07:15:57;1.93;;;1.50;;
10529;SDS011;5313;48.834;9.228;2022-07-03T07:18:23;3.13;;;1.60;;
10529;SDS011;5313;48.834;9.228;2022-07-03T07:20:48;2.10;;;1.90;;
10529;SDS011;5313;48.834;9.228;2022-07-03T07:23:14;2.17;;;1.53;;
10529;SDS011;5313;48.834;9.228;2022-07-03T07:25:39;1.90;;;1.70;;
10529;SDS011;5313;48.834;9.228;2022-07-03T07:28:05;1.97;;;1.53;;
10529;SDS011;5313;48.834;9.228;2022-07-03T07:30:30;1.77;;;1.50;;
10529;SDS011;5313;48.834;9.228;2022-07-03T07:32:56;2.77;;;1.57;;
10529;SDS011;5313;48.834;9.228;2022-07-03T07:35:22;3.07;;;1.60;;
10529;SDS011;5313;48.834;9.228;2022-07-03T07:37:47;1.53;;;1.43;;
10529;SDS011;5313;48.834;9.228;2022-07-03T07:40:13;2.10;;;1.57;;
10529;SDS011;5313;48.834;9.228;2022-07-03T07:42:39;2.60;;;1.40;;
10529;SDS011;5313;48.834;9.228;2022-07-03T07:45:04;2.13;;;1.40;;
10529;SDS011;5313;48.834;9.228;2022-07-03T07:47:30;4.20;;;1.70;;
10529;SDS011;5313;48.834;9.228;2022-07-03T07:49:56;3.73;;;1.70;;
10529;SDS011;5313;48.834;9.228;2022-07-03T07:52:21;2.47;;;1.40;;
10529;SDS011;5313;48.834;9.228;2022-07-03T07:54:49;2.40;;;1.60;;
10529;SDS011;5313;48.834;9.228;2022-07-03T07:57:15;4.03;;;1.40;;
10529;SDS011;5313;48.834;9.228;2022-07-03T07:59:40;1.60;;;1.47;;
10529;SDS011;5313;48.834;9.228;2022-07-03T08:02:06;1.97;;;1.77;;
10529;SDS011;5313;48.834;9.228;2022-07-03T08:04:50;2.63;;;1.20;;
10529;SDS011;5313;48.834;9.228;2022-07-03T08:07:34;2.80;;;1.20;;
10529;SDS011;5313;48.834;9.228;2022-07-03T08:09:59;1.33;;;1.20;;
10529;SDS011;5313;48.834;9.228;2022-07-03T08:12:25;3.50;;;1.30;;
10529;SDS011;5313;48.834;9.228;2022-07-03T08:14:50;3.73;;;1.10;;
10529;SDS011;5313;48.834;9.228;2022-07-03T08:17:16;3.03;;;2.20;;
10529;SDS011;5313;48.834;9.228;2022-07-03T08:19:41;1.03;;;0.93;;
10529;SDS011;5313;48.834;9.228;2022-07-03T08:22:07;1.20;;;1.00;;
10529;SDS011;5313;48.834;9.228;2022-07-03T08:24:32;2.33;;;1.80;;
10529;SDS011;5313;48.834;9.228;2022-07-03T08:26:58;3.43;;;1.70;;
10529;SDS011;5313;48.834;9.228;2022-07-03T08:29:23;2.10;;;1.10;;
10529;SDS011;5313;48.834;9.228;2022-07-03T08:31:49;1.20;;;1.00;;
10529;SDS011;5313;48.834;9.228;2022-07-03T08:34:15;4.50;;;1.17;;
10529;SDS011;5313;48.834;9.228;2022-07-03T08:36:41;1.30;;;1.10;;
10529;SDS011;5313;48.834;9.228;2022-07-03T08:39:07;1.87;;;0.90;;
10529;SDS011;5313;48.834;9.228;2022-07-03T08:41:33;1.63;;;1.10;;
10529;SDS011;5313;48.834;9.228;2022-07-03T08:44:02;1.10;;;0.90;;
10529;SDS011;5313;48.834;9.228;2022-07-03T08:46:28;4.53;;;1.10;;
10529;SDS011;5313;48.834;9.228;2022-07-03T08:48:57;1.20;;;1.10;;
10529;SDS011;5313;48.834;9.228;2022-07-03T08:51:26;2.23;;;0.93;;
10529;SDS011;5313;48.834;9.228;2022-07-03T08:53:55;2.60;;;1.10;;
10529;SDS011;5313;48.834;9.228;2022-07-03T08:56:24;2.23;;;0.90;;
10529;SDS011;5313;48.834;9.228;2022-07-03T08:58:51;1.20;;;0.83;;
10529;SDS011;5313;48.834;9.228;2022-07-03T09:01:17;1.20;;;0.87;;
10529;SDS011;5313;48.834;9.228;2022-07-03T09:03:44;1.43;;;0.70;;
10529;SDS011;5313;48.834;9.228;2022-07-03T09:06:13;1.40;;;0.77;;
10529;SDS011;5313;48.834;9.228;2022-07-03T09:08:40;0.80;;;0.70;;
10529;SDS011;5313;48.834;9.228;2022-07-03T09:11:06;1.43;;;0.70;;
10529;SDS011;5313;48.834;9.228;2022-07-03T09:13:31;2.20;;;0.60;;
10529;SDS011;5313;48.834;9.228;2022-07-03T09:15:57;1.23;;;0.70;;
10529;SDS011;5313;48.834;9.228;2022-07-03T09:18:38;2.13;;;0.87;;
10529;SDS011;5313;48.834;9.228;2022-07-03T09:21:05;1.87;;;1.00;;
10529;SDS011;5313;48.834;9.228;2022-07-03T09:23:35;0.60;;;0.60;;
10529;SDS011;5313;48.834;9.228;2022-07-03T09:26:02;1.93;;;0.70;;
10529;SDS011;5313;48.834;9.228;2022-07-03T09:29:02;0.70;;;0.70;;
10529;SDS011;5313;48.834;9.228;2022-07-03T09:31:21;1.70;;;0.70;;
10529;SDS011;5313;48.834;9.228;2022-07-03T09:39:21;2.03;;;0.70;;
10529;SDS011;5313;48.834;9.228;2022-07-03T09:41:53;1.63;;;0.50;;
10529;SDS011;5313;48.834;9.228;2022-07-03T09:44:27;1.50;;;0.70;;
10529;SDS011;5313;48.834;9.228;2022-07-03T09:54:59;0.53;;;0.53;;
10529;SDS011;5313;48.834;9.228;2022-07-03T09:57:35;1.33;;;0.70;;
10529;SDS011;5313;48.834;9.228;2022-07-03T10:00:23;1.08;;;0.77;;
10529;SDS011;5313;48.834;9.228;2022-07-03T10:02:54;1.08;;;0.77;;
10529;SDS011;5313;48.834;9.228;2022-07-03T10:05:21;1.08;;;0.77;;
10529;SDS011;5313;48.834;9.228;2022-07-03T10:10:39;1.65;;;0.88;;
10529;SDS011;5313;48.834;9.228;2022-07-03T10:13:09;1.88;;;0.82;;
10529;SDS011;5313;48.834;9.228;2022-07-03T10:15:35;1.88;;;0.63;;
10529;SDS011;5313;48.834;9.228;2022-07-03T10:18:03;1.08;;;0.90;;
10529;SDS011;5313;48.834;9.228;2022-07-03T10:20:40;2.38;;;0.80;;
10529;SDS011;5313;48.834;9.228;2022-07-03T10:23:17;1.13;;;0.80;;
10529;SDS011;5313;48.834;9.228;2022-07-03T10:25:46;0.85;;;0.70;;
10529;SDS011;5313;48.834;9.228;2022-07-03T10:28:13;1.08;;;0.70;;
10529;SDS011;5313;48.834;9.228;2022-07-03T10:30:40;0.88;;;0.65;;
10529;SDS011;5313;48.834;9.228;2022-07-03T10:33:08;0.85;;;0.80;;
10529;SDS011;5313;48.834;9.228;2022-07-03T10:35:35;2.05;;;0.60;;
10529;SDS011;5313;48.834;9.228;2022-07-03T10:43:34;1.20;;;0.65;;
10529;SDS011;5313;48.834;9.228;2022-07-03T10:46:21;0.65;;;0.60;;
10529;SDS011;5313;48.834;9.228;2022-07-03T10:48:52;0.82;;;0.70;;
10529;SDS011;5313;48.834;9.228;2022-07-03T10:51:17;1.40;;;0.60;;
10529;SDS011;5313;48.834;9.228;2022-07-03T10:53:43;1.02;;;0.73;;
10529;SDS011;5313;48.834;9.228;2022-07-03T10:56:08;2.35;;;0.80;;
10529;SDS011;5313;48.834;9.228;2022-07-03T11:01:26;2.00;;;1.05;;
10529;SDS011;5313;48.834;9.228;2022-07-03T11:06:48;0.70;;;0.70;;
10529;SDS011;5313;48.834;9.228;2022-07-03T11:09:08;1.30;;;0.68;;
10529;SDS011;5313;48.834;9.228;2022-07-03T11:11:40;0.55;;;0.55;;
10529;SDS011;5313;48.834;9.228;2022-07-03T11:14:25;0.93;;;0.70;;
10529;SDS011;5313;48.834;9.228;2022-07-03T11:19:44;1.27;;;0.60;;
10529;SDS011;5313;48.834;9.228;2022-07-03T11:22:33;0.90;;;0.70;;
10529;SDS011;5313;48.834;9.228;2022-07-03T11:25:19;1.25;;;0.93;;
10529;SDS011;5313;48.834;9.228;2022-07-03T11:27:45;0.90;;;0.70;;
10529;SDS011;5313;48.834;9.228;2022-07-03T11:30:13;1.20;;;0.82;;
10529;SDS011;5313;48.834;9.228;2022-07-03T11:38:09;0.80;;;0.60;;
10529;SDS011;5313;48.834;9.228;2022-07-03T11:40:36;1.67;;;0.90;;
10529;SDS011;5313;48.834;9.228;2022-07-03T11:43:05;2.08;;;0.82;;
10529;SDS011;5313;48.834;9.228;2022-07-03T11:45:31;1.27;;;0.80;;
10529;SDS011;5313;48.834;9.228;2022-07-03T11:47:57;1.00;;;0.80;;
10529;SDS011;5313;48.834;9.228;2022-07-03T11:50:39;0.82;;;0.60;;
10529;SDS011;5313;48.834;9.228;2022-07-03T11:53:15;2.78;;;0.75;;
10529;SDS011;5313;48.834;9.228;2022-07-03T11:58:19;0.80;;;0.80;;
10529;SDS011;5313;48.834;9.228;2022-07-03T12:00:46;1.02;;;0.90;;
10529;SDS011;5313;48.834;9.228;2022-07-03T12:03:14;1.40;;;0.70;;
10529;SDS011;5313;48.834;9.228;2022-07-03T12:05:54;2.33;;;0.85;;
10529;SDS011;5313;48.834;9.228;2022-07-03T12:08:23;1.15;;;0.73;;
10529;SDS011;5313;48.834;9.228;2022-07-03T12:10:56;1.13;;;0.80;;
10529;SDS011;5313;48.834;9.228;2022-07-03T12:13:23;1.92;;;0.80;;
10529;SDS011;5313;48.834;9.228;2022-07-03T12:15:50;1.00;;;0.70;;
10529;SDS011;5313;48.834;9.228;2022-07-03T12:18:16;1.15;;;1.00;;
10529;SDS011;5313;48.834;9.228;2022-07-03T12:20:41;1.30;;;1.05;;
10529;SDS011;5313;48.834;9.228;2022-07-03T12:23:07;3.95;;;1.23;;
10529;SDS011;5313;48.834;9.228;2022-07-03T12:25:40;1.50;;;0.90;;
10529;SDS011;5313;48.834;9.228;2022-07-03T12:28:09;3.50;;;0.95;;
10529;SDS011;5313;48.834;9.228;2022-07-03T12:30:35;0.73;;;0.70;;
10529;SDS011;5313;48.834;9.228;2022-07-03T12:33:02;1.42;;;0.80;;
10529;SDS011;5313;48.834;9.228;2022-07-03T12:35:29;0.60;;;0.60;;
10529;SDS011;5313;48.834;9.228;2022-07-03T12:37:55;1.83;;;0.88;;
10529;SDS011;5313;48.834;9.228;2022-07-03T12:40:21;1.45;;;1.33;;
10529;SDS011;5313;48.834;9.228;2022-07-03T12:42:53;1.02;;;0.80;;
10529;SDS011;5313;48.834;9.228;2022-07-03T12:45:24;1.05;;;0.70;;
10529;SDS011;5313;48.834;9.228;2022-07-03T12:47:59;1.10;;;1.00;;
10529;SDS011;5313;48.834;9.228;2022-07-03T12:50:42;1.65;;;0.93;;
10529;SDS011;5313;48.834;9.228;2022-07-03T12:53:09;0.82;;;0.70;;
10529;SDS011;5313;48.834;9.228;2022-07-03T12:55:35;2.72;;;0.90;;
10529;SDS011;5313;48.834;9.228;2022-07-03T12:58:13;1.10;;;0.73;;
10529;SDS011;5313;48.834;9.228;2022-07-03T13:00:59;1.27;;;0.80;;
10529;SDS011;5313;48.834;9.228;2022-07-03T13:03:25;1.70;;;1.17;;
10529;SDS011;5313;48.834;9.228;2022-07-03T13:05:55;3.40;;;1.30;;
10529;SDS011;5313;48.834;9.228;2022-07-03T13:08:20;1.17;;;0.88;;
10529;SDS011;5313;48.834;9.228;2022-07-03T13:10:56;1.25;;;0.65;;
10529;SDS011;5313;48.834;9.228;2022-07-03T13:13:22;1.45;;;0.88;;
10529;SDS011;5313;48.834;9.228;2022-07-03T13:15:48;1.10;;;0.80;;
10529;SDS011;5313;48.834;9.228;2022-07-03T13:18:14;1.88;;;0.90;;
10529;SDS011;5313;48.834;9.228;2022-07-03T13:20:39;1.02;;;0.90;;
10529;SDS011;5313;48.834;9.228;2022-07-03T13:23:05;2.40;;;0.80;;
10529;SDS011;5313;48.834;9.228;2022-07-03T13:25:32;3.97;;;0.82;;
10529;SDS011;5313;48.834;9.228;2022-07-03T13:28:08;1.45;;;1.02;;
10529;SDS011;5313;48.834;9.228;2022-07-03T13:30:35;2.28;;;0.70;;
10529;SDS011;5313;48.834;9.228;2022-07-03T13:33:01;1.40;;;0.82;;
10529;SDS011;5313;48.834;9.228;2022-07-03T13:35:28;0.73;;;0.73;;
10529;SDS011;5313;48.834;9.228;2022-07-03T13:37:53;1.52;;;1.00;;
10529;SDS011;5313;48.834;9.228;2022-07-03T13:40:19;1.85;;;0.70;;
10529;SDS011;5313;48.834;9.228;2022-07-03T13:42:45;1.52;;;0.80;;
10529;SDS011;5313;48.834;9.228;2022-07-03T13:45:10;0.80;;;0.77;;
10529;SDS011;5313;48.834;9.228;2022-07-03T13:47:36;0.98;;;0.73;;
10529;SDS011;5313;48.834;9.228;2022-07-03T13:50:02;1.45;;;0.90;;
10529;SDS011;5313;48.834;9.228;2022-07-03T13:52:28;0.80;;;0.80;;
10529;SDS011;5313;48.834;9.228;2022-07-03T13:54:53;1.20;;;0.68;;
10529;SDS011;5313;48.834;9.228;2022-07-03T13:57:19;3.03;;;0.70;;
10529;SDS011;5313;48.834;9.228;2022-07-03T13:59:44;1.20;;;0.90;;
10529;SDS011;5313;48.834;9.228;2022-07-03T14:02:10;1.25;;;0.73;;
10529;SDS011;5313;48.834;9.228;2022-07-03T14:04:35;2.45;;;0.77;;
10529;SDS011;5313;48.834;9.228;2022-07-03T14:07:01;3.92;;;0.88;;
10529;SDS011;5313;48.834;9.228;2022-07-03T14:09:27;2.00;;;0.75;;
10529;SDS011;5313;48.834;9.228;2022-07-03T14:11:52;1.48;;;1.20;;
10529;SDS011;5313;48.834;9.228;2022-07-03T14:14:18;1.55;;;0.77;;
10529;SDS011;5313;48.834;9.228;2022-07-03T14:16:43;2.38;;;0.85;;
10529;SDS011;5313;48.834;9.228;2022-07-03T14:19:09;0.70;;;0.70;;
10529;SDS011;5313;48.834;9.228;2022-07-03T14:21:34;3.22;;;0.80;;
10529;SDS011;5313;48.834;9.228;2022-07-03T14:24:00;0.77;;;0.75;;
10529;SDS011;5313;48.834;9.228;2022-07-03T14:26:26;0.90;;;0.73;;
10529;SDS011;5313;48.834;9.228;2022-07-03T14:29:10;2.35;;;0.73;;
10529;SDS011;5313;48.834;9.228;2022-07-03T14:31:54;0.82;;;0.80;;
10529;SDS011;5313;48.834;9.228;2022-07-03T14:34:40;1.30;;;0.77;;
10529;SDS011;5313;48.834;9.228;2022-07-03T14:37:06;1.50;;;0.82;;
10529;SDS011;5313;48.834;9.228;2022-07-03T14:39:32;3.40;;;0.80;;
10529;SDS011;5313;48.834;9.228;2022-07-03T14:41:57;2.40;;;0.82;;
10529;SDS011;5313;48.834;9.228;2022-07-03T14:44:23;1.33;;;0.80;;
10529;SDS011;5313;48.834;9.228;2022-07-03T14:46:50;3.80;;;0.95;;
10529;SDS011;5313;48.834;9.228;2022-07-03T14:49:16;0.73;;;0.73;;
10529;SDS011;5313;48.834;9.228;2022-07-03T14:51:42;0.70;;;0.57;;
10529;SDS011;5313;48.834;9.228;2022-07-03T14:54:08;2.22;;;1.00;;
10529;SDS011;5313;48.834;9.228;2022-07-03T14:56:36;1.98;;;0.80;;
10529;SDS011;5313;48.834;9.228;2022-07-03T14:59:06;1.05;;;0.80;;
10529;SDS011;5313;48.834;9.228;2022-07-03T15:01:34;1.55;;;0.88;;
10529;SDS011;5313;48.834;9.228;2022-07-03T15:04:03;1.48;;;0.90;;
10529;SDS011;5313;48.834;9.228;2022-07-03T15:06:37;2.35;;;1.20;;
10529;SDS011;5313;48.834;9.228;2022-07-03T15:09:03;1.63;;;0.90;;
10529;SDS011;5313;48.834;9.228;2022-07-03T15:11:33;0.70;;;0.70;;
10529;SDS011;5313;48.834;9.228;2022-07-03T15:14:23;0.90;;;0.70;;
10529;SDS011;5313;48.834;9.228;2022-07-03T15:16:50;1.33;;;0.60;;
10529;SDS011;5313;48.834;9.228;2022-07-03T15:19:18;1.05;;;0.80;;
10529;SDS011;5313;48.834;9.228;2022-07-03T15:21:46;1.35;;;0.80;;
10529;SDS011;5313;48.834;9.228;2022-07-03T15:24:13;1.00;;;0.70;;
10529;SDS011;5313;48.834;9.228;2022-07-03T15:26:40;1.05;;;0.90;;
10529;SDS011;5313;48.834;9.228;2022-07-03T15:29:06;2.90;;;0.98;;
10529;SDS011;5313;48.834;9.228;2022-07-03T15:31:35;1.77;;;0.90;;
10529;SDS011;5313;48.834;9.228;2022-07-03T15:34:05;0.70;;;0.70;;
10529;SDS011;5313;48.834;9.228;2022-07-03T15:39:36;1.67;;;0.80;;
10529;SDS011;5313;48.834;9.228;2022-07-03T15:42:28;2.53;;;0.98;;
10529;SDS011;5313;48.834;9.228;2022-07-03T15:50:06;1.13;;;0.70;;
10529;SDS011;5313;48.834;9.228;2022-07-03T15:52:39;1.33;;;0.80;;
10529;SDS011;5313;48.834;9.228;2022-07-03T15:55:06;1.40;;;0.80;;
10529;SDS011;5313;48.834;9.228;2022-07-03T16:00:08;1.13;;;0.68;;
10529;SDS011;5313;48.834;9.228;2022-07-03T16:05:10;4.45;;;0.82;;
10529;SDS011;5313;48.834;9.228;2022-07-03T16:07:39;1.60;;;0.90;;
10529;SDS011;5313;48.834;9.228;2022-07-03T16:10:06;1.30;;;1.08;;
10529;SDS011;5313;48.834;9.228;2022-07-03T16:12:34;0.77;;;0.70;;
10529;SDS011;5313;48.834;9.228;2022-07-03T16:15:01;2.30;;;0.90;;
10529;SDS011;5313;48.834;9.228;2022-07-03T16:17:27;1.10;;;0.70;;
10529;SDS011;5313;48.834;9.228;2022-07-03T16:19:57;1.73;;;0.93;;
10529;SDS011;5313;48.834;9.228;2022-07-03T16:22:24;2.05;;;0.80;;
10529;SDS011;5313;48.834;9.228;2022-07-03T16:24:52;2.20;;;0.80;;
10529;SDS011;5313;48.834;9.228;2022-07-03T16:27:19;2.10;;;0.77;;
10529;SDS011;5313;48.834;9.228;2022-07-03T16:29:49;2.75;;;0.98;;
10529;SDS011;5313;48.834;9.228;2022-07-03T16:32:19;3.42;;;0.95;;
10529;SDS011;5313;48.834;9.228;2022-07-03T16:34:50;2.05;;;0.70;;
10529;SDS011;5313;48.834;9.228;2022-07-03T16:37:30;1.63;;;1.00;;
10529;SDS011;5313;48.834;9.228;2022-07-03T16:40:01;2.65;;;0.90;;
10529;SDS011;5313;48.834;9.228;2022-07-03T16:42:33;3.42;;;1.00;;